Pickerington, Ohio
Current Conditions -  °F | °C
As of 9:53 AM on Saturday 25 Oct 2014 (Local Time) from KLHQ Reporting Station
Overcast Overcast  
Wind Chill: 56°   Ceiling: 9000
Heat Index: 56°   Visibility: 8mi
Dew Point: 48°   Wind: 7mph
Humidity: 75%   Direction: 230°SW
Pressure: 29.98"   Gusts: NA
Location:  39.88°N, 82.75°W
Report Text: KLHQ 251353Z AUTO 23006KT 8SM FEW050 SCT060 OVC090 13/09 A2998 RMK AO2 SLP155 T01330089
Loading
Personal Weather Stations






























Interactive Weather Map
Tropical Storm Tracking
New forecast layout! Learn more

10-Day Weather Forecast

Advertisements
Track Severe Weather on mobile